Time;durP1;ratioP1;P1;durP2;ratioP2;P2;SDS_P1;SDS_P2;PMS_P1;PMS_P2;Temp;Humidity;BMP_temperature;BMP_pressure;BME280_temperature;BME280_humidity;BME280_pressure;Samples;Min_cycle;Max_cycle;Signal;HPM_P1;HPM_P2
2023/03/29 00:01:35;;;;;;;5.20;1.02;;;;;;;15.01;38.98;101466.13;4966367;28;20039;-65
2023/03/29 00:04:01;;;;;;;2.03;1.17;;;;;;;15.01;39.21;101466.13;4966825;28;20118;-65
2023/03/29 00:06:31;;;;;;;1.63;1.02;;;;;;;15.02;38.88;101457.00;4966927;28;20115;-65
2023/03/29 00:08:57;;;;;;;3.78;1.73;;;;;;;15.04;37.93;101464.00;4952146;28;20035;-64
2023/03/29 00:11:24;;;;;;;2.22;1.25;;;;;;;15.08;38.67;101456.44;4967361;28;20394;-64
2023/03/29 00:13:50;;;;;;;2.75;0.85;;;;;;;15.12;38.78;101460.56;4950194;28;20054;-64
2023/03/29 00:16:16;;;;;;;0.93;0.70;;;;;;;15.12;38.39;101457.88;4966237;28;20032;-65
2023/03/29 00:18:42;;;;;;;1.40;0.93;;;;;;;15.12;38.40;101463.25;4950137;28;20074;-65
2023/03/29 00:21:07;;;;;;;2.20;1.15;;;;;;;15.11;39.20;101464.25;4965981;28;20055;-64
2023/03/29 00:23:33;;;;;;;1.40;0.93;;;;;;;15.12;38.72;101455.16;4950276;29;20032;-64
2023/03/29 00:25:58;;;;;;;1.88;0.90;;;;;;;15.19;37.95;101452.75;4949851;28;20122;-65
2023/03/29 00:28:23;;;;;;;1.58;0.85;;;;;;;15.16;38.79;101451.16;4951142;28;20513;-65
2023/03/29 00:30:49;;;;;;;1.60;1.10;;;;;;;15.16;38.68;101452.03;4949860;28;20039;-65
2023/03/29 00:33:15;;;;;;;4.88;0.88;;;;;;;15.15;39.04;101449.50;4966437;28;20023;-65
2023/03/29 00:35:41;;;;;;;3.72;1.38;;;;;;;15.14;38.75;101450.47;4953615;29;20065;-65
2023/03/29 00:38:07;;;;;;;4.07;1.50;;;;;;;15.19;38.56;101453.59;4952844;28;20054;-65
2023/03/29 00:40:33;;;;;;;3.08;0.70;;;;;;;15.18;38.12;101446.50;4952125;28;20522;-65
2023/03/29 00:42:59;;;;;;;1.83;1.23;;;;;;;15.24;39.08;101451.34;4953055;28;20081;-64
2023/03/29 00:45:29;;;;;;;7.35;1.77;;;;;;;15.27;39.30;101445.63;4947531;28;20043;-65
2023/03/29 00:48:01;;;;;;;1.48;1.00;;;;;;;15.30;39.05;101448.03;4922383;28;20442;-65
2023/03/29 00:50:32;;;;;;;2.28;0.70;;;;;;;15.33;38.58;101436.94;4953137;28;20097;-65
2023/03/29 00:53:03;;;;;;;1.17;0.85;;;;;;;15.35;37.90;101432.28;4937091;29;20452;-65
2023/03/29 00:55:36;;;;;;;3.65;0.93;;;;;;;15.38;38.37;101423.88;4953157;28;20062;-65
2023/03/29 00:58:03;;;;;;;;;;;;;;;15.41;38.24;101428.16;4937714;29;20027;-65
2023/03/29 01:00:37;;;;;;;4.60;1.08;;;;;;;15.42;38.96;101422.59;4952768;28;19937;-65
2023/03/29 01:03:12;;;;;;;2.85;1.00;;;;;;;15.41;38.15;101417.34;4968697;28;20475;-64
2023/03/29 01:05:41;;;;;;;4.95;1.10;;;;;;;15.37;37.46;101397.88;4968772;28;20034;-65
2023/03/29 01:08:20;;;;;;;1.83;1.27;;;;;;;15.38;37.63;101404.97;4968350;28;20040;-66
2023/03/29 01:10:54;;;;;;;3.35;1.10;;;;;;;15.37;38.14;101403.28;4952642;28;20110;-66
2023/03/29 01:13:26;;;;;;;1.88;1.05;;;;;;;15.37;38.05;101407.81;4954037;28;20031;-65
2023/03/29 01:15:53;;;;;;;1.33;0.75;;;;;;;15.37;38.07;101403.28;4953616;28;20062;-65
2023/03/29 01:18:21;;;;;;;2.58;1.33;;;;;;;15.41;39.44;101410.06;4952506;28;20038;-65
2023/03/29 01:21:06;;;;;;;2.10;0.98;;;;;;;15.45;39.35;101399.84;4952855;29;20031;-65
2023/03/29 01:23:49;;;;;;;3.17;1.10;;;;;;;15.44;39.00;101398.13;4953772;29;20051;-65
2023/03/29 01:26:27;;;;;;;2.88;0.98;;;;;;;15.44;39.35;101398.97;4952480;28;20031;-64
2023/03/29 01:28:59;;;;;;;4.70;1.17;;;;;;;15.44;37.65;101393.59;4952275;28;20039;-65
2023/03/29 01:31:28;;;;;;;1.07;0.70;;;;;;;15.49;39.14;101385.09;4969566;28;20406;-64
2023/03/29 01:34:01;;;;;;;1.92;1.00;;;;;;;15.50;38.38;101384.94;4953590;28;20361;-65
2023/03/29 01:36:33;;;;;;;3.45;0.73;;;;;;;15.52;38.02;101385.63;4955046;28;20111;-65
2023/03/29 01:39:04;;;;;;;1.40;1.00;;;;;;;15.52;39.50;101391.03;4936466;28;20444;-65
2023/03/29 01:41:38;;;;;;;1.38;0.90;;;;;;;15.51;38.64;101383.94;4968673;28;20106;-65
2023/03/29 01:44:18;;;;;;;2.15;1.00;;;;;;;15.52;38.76;101387.50;4951571;28;20082;-66
2023/03/29 01:46:51;;;;;;;1.30;0.93;;;;;;;15.50;37.87;101376.84;4936322;28;20032;-63
2023/03/29 01:49:23;;;;;;;;;;;;;;;15.48;37.59;101388.78;4953734;28;20036;-63
2023/03/29 01:51:51;;;;;;;0.98;0.60;;;;;;;15.47;38.16;101373.56;4953156;28;19921;-63
2023/03/29 01:54:27;;;;;;;3.50;0.93;;;;;;;15.46;37.82;101372.75;4951980;28;20117;-63
2023/03/29 01:56:55;;;;;;;1.30;0.82;;;;;;;15.49;39.13;101372.44;4968479;28;20106;-63
2023/03/29 01:59:27;;;;;;;2.15;0.95;;;;;;;15.44;37.77;101354.94;4952019;28;20498;-63
2023/03/29 02:01:56;;;;;;;1.98;0.70;;;;;;;15.51;39.21;101362.34;4967479;28;20046;-63
2023/03/29 02:04:27;;;;;;;2.65;1.20;;;;;;;15.54;38.68;101366.59;4952069;28;20505;-63
2023/03/29 02:06:54;;;;;;;4.50;1.15;;;;;;;15.53;38.05;101354.94;4935963;28;20032;-64
2023/03/29 02:09:20;;;;;;;2.17;1.30;;;;;;;15.56;38.11;101359.19;4951789;28;20495;-63
2023/03/29 02:11:46;;;;;;;2.40;1.08;;;;;;;15.54;38.16;101345.00;4968555;28;20047;-63
2023/03/29 02:14:12;;;;;;;3.20;1.10;;;;;;;15.51;39.06;101345.28;4951680;28;20052;-63
2023/03/29 02:16:39;;;;;;;8.85;0.95;;;;;;;15.49;38.77;101339.19;4967587;28;20045;-63
2023/03/29 02:19:06;;;;;;;2.05;0.90;;;;;;;15.51;37.89;101335.34;4967662;28;20085;-64
2023/03/29 02:21:39;;;;;;;2.80;1.02;;;;;;;15.49;38.10;101331.94;4967580;28;20042;-63
2023/03/29 02:24:08;;;;;;;1.30;1.10;;;;;;;15.49;38.88;101331.94;4967537;28;20023;-64
2023/03/29 02:26:33;;;;;;;0.70;0.70;;;;;;;15.47;38.23;101316.88;4968097;28;20145;-63
2023/03/29 02:28:59;;;;;;;9.32;1.42;;;;;;;15.54;38.13;101318.84;4967391;28;20118;-63
2023/03/29 02:31:33;;;;;;;3.20;0.85;;;;;;;15.55;39.07;101320.53;4951179;28;20040;-64
2023/03/29 02:34:18;;;;;;;0.88;0.77;;;;;;;15.61;38.00;101329.88;4967755;28;20433;-64
2023/03/29 02:36:43;;;;;;;1.55;0.90;;;;;;;15.61;39.17;101322.63;4951594;28;20114;-63
2023/03/29 02:39:14;;;;;;;4.57;1.17;;;;;;;15.59;38.62;101321.09;4951478;28;20058;-65
2023/03/29 02:41:42;;;;;;;2.67;0.77;;;;;;;15.61;37.76;101330.75;4967750;28;20031;-62
2023/03/29 02:44:11;;;;;;;4.55;1.40;;;;;;;15.59;38.16;101321.09;4951313;28;20131;-63
2023/03/29 02:46:37;;;;;;;3.00;1.00;;;;;;;15.57;38.20;101302.34;4967284;28;20047;-63
2023/03/29 02:49:04;;;;;;;1.00;0.60;;;;;;;15.54;37.97;101305.34;4951165;28;20407;-63
2023/03/29 02:51:33;;;;;;;5.93;1.00;;;;;;;15.55;39.29;101309.72;4951372;28;20548;-63
2023/03/29 02:54:05;;;;;;;3.88;1.00;;;;;;;15.59;37.72;101310.28;4951276;28;20050;-63
2023/03/29 02:56:44;;;;;;;4.03;1.08;;;;;;;15.60;38.27;101306.59;4966860;28;20520;-62
2023/03/29 02:59:11;;;;;;;4.13;1.00;;;;;;;15.61;38.38;101309.13;4967122;28;20031;-65
2023/03/29 03:01:37;;;;;;;1.20;0.70;;;;;;;15.62;38.55;101289.25;4952308;28;20043;-63
2023/03/29 03:04:02;;;;;;;1.02;0.88;;;;;;;15.65;37.98;101302.44;4951120;28;20031;-63
2023/03/29 03:06:28;;;;;;;2.53;0.85;;;;;;;15.68;38.63;101296.75;4950746;28;20505;-63
2023/03/29 03:08:54;;;;;;;7.20;1.23;;;;;;;15.71;37.53;101296.44;4951233;29;20039;-62
2023/03/29 03:11:20;;;;;;;2.78;1.35;;;;;;;15.72;37.51;101295.44;4950678;28;20034;-63
2023/03/29 03:13:45;;;;;;;3.95;0.88;;;;;;;15.71;38.25;101292.91;4950853;28;20039;-63
2023/03/29 03:16:11;;;;;;;4.00;1.00;;;;;;;15.77;38.08;101292.28;4966838;28;20073;-64
2023/03/29 03:18:36;;;;;;;2.70;0.80;;;;;;;15.80;38.18;101274.94;4950800;28;20032;-63
2023/03/29 03:21:03;;;;;;;1.50;0.77;;;;;;;15.79;38.63;101278.63;4966775;28;20402;-63
2023/03/29 03:23:29;;;;;;;3.60;0.95;;;;;;;15.82;38.83;101278.31;4966973;28;20110;-63
2023/03/29 03:25:54;;;;;;;2.58;0.70;;;;;;;15.84;38.20;101268.22;4952456;28;20118;-64
2023/03/29 03:28:20;;;;;;;1.42;0.70;;;;;;;15.81;38.65;101272.06;4967372;28;20031;-62
2023/03/29 03:30:46;;;;;;;2.50;0.65;;;;;;;15.82;38.32;101260.28;4935006;29;20044;-63
2023/03/29 03:33:12;;;;;;;3.97;0.93;;;;;;;15.87;38.75;101270.59;4966717;28;20039;-63
2023/03/29 03:35:38;;;;;;;0.98;0.80;;;;;;;15.88;37.38;101266.91;4951078;29;20039;-62
2023/03/29 03:38:04;;;;;;;0.68;0.63;;;;;;;15.89;38.99;101274.00;4966300;28;20533;-63
2023/03/29 03:40:31;;;;;;;4.18;1.58;;;;;;;15.91;38.47;101269.31;4951681;28;20464;-64
2023/03/29 03:42:57;;;;;;;2.35;0.90;;;;;;;15.89;37.53;101268.59;4951792;28;20038;-63
2023/03/29 03:45:23;;;;;;;2.25;1.10;;;;;;;15.93;38.98;101272.69;4965594;28;20451;-63
2023/03/29 03:47:49;;;;;;;1.77;1.02;;;;;;;15.94;38.11;101277.13;4950913;29;20403;-64
2023/03/29 03:50:16;;;;;;;3.63;0.80;;;;;;;15.96;39.25;101278.66;4950553;28;20031;-63
2023/03/29 03:52:41;;;;;;;3.65;1.00;;;;;;;15.99;38.59;101280.19;4951503;28;20073;-64
2023/03/29 03:55:08;;;;;;;1.42;0.85;;;;;;;16.00;38.86;101280.03;4966545;28;20035;-64
2023/03/29 03:57:36;;;;;;;3.58;1.17;;;;;;;16.01;38.46;101284.44;4950361;28;20032;-63
2023/03/29 04:00:17;;;;;;;2.88;0.80;;;;;;;16.03;38.97;101287.84;4966043;28;20039;-63
2023/03/29 04:02:42;;;;;;;6.63;1.40;;;;;;;16.02;37.82;101280.75;4964938;28;20028;-63
2023/03/29 04:05:08;;;;;;;6.60;1.10;;;;;;;16.03;39.01;101287.84;4950175;28;20035;-63
2023/03/29 04:07:33;;;;;;;4.57;0.98;;;;;;;16.03;38.92;101276.16;4951097;28;20577;-64
2023/03/29 04:09:59;;;;;;;3.20;0.95;;;;;;;15.98;38.89;101271.25;4954728;28;20027;-63
2023/03/29 04:12:24;;;;;;;5.68;1.10;;;;;;;15.94;38.07;101260.91;4969590;28;20043;-63
2023/03/29 04:14:50;;;;;;;2.05;0.90;;;;;;;15.99;38.30;101269.38;4953918;29;20471;-64
2023/03/29 04:17:15;;;;;;;1.10;0.98;;;;;;;15.97;37.99;101263.31;4954913;28;20046;-63
2023/03/29 04:19:41;;;;;;;2.95;0.80;;;;;;;15.97;38.37;101271.41;4970097;28;20039;-64
2023/03/29 04:22:06;;;;;;;2.45;0.90;;;;;;;15.97;37.97;101260.59;4970132;28;20035;-63
2023/03/29 04:24:32;;;;;;;1.80;1.33;;;;;;;15.97;39.20;101260.59;4953531;28;20540;-63
2023/03/29 04:26:57;;;;;;;2.38;0.93;;;;;;;15.97;38.31;101260.59;4953195;28;20042;-64
2023/03/29 04:29:22;;;;;;;3.75;1.00;;;;;;;15.95;39.42;101268.84;4953686;29;20035;-64
2023/03/29 04:31:48;;;;;;;2.50;0.90;;;;;;;15.94;39.36;101266.31;4969563;28;20500;-63
2023/03/29 04:34:13;;;;;;;1.70;1.20;;;;;;;15.94;38.16;101252.78;4969633;28;20036;-64
2023/03/29 04:36:39;;;;;;;1.95;1.20;;;;;;;15.97;39.41;101260.59;4969306;28;20486;-63
2023/03/29 04:39:06;;;;;;;2.22;1.13;;;;;;;15.99;39.37;101261.28;4969163;28;20027;-63
2023/03/29 04:41:33;;;;;;;2.70;1.00;;;;;;;15.98;38.14;101257.72;4937831;29;20031;-64
2023/03/29 04:43:59;;;;;;;2.63;0.82;;;;;;;16.00;38.16;101265.66;4968960;28;20031;-64
2023/03/29 04:46:25;;;;;;;2.20;1.15;;;;;;;15.99;38.02;101264.00;4967858;28;20065;-64
2023/03/29 04:48:51;;;;;;;2.40;0.95;;;;;;;15.97;39.14;101266.00;4953101;28;20047;-63
2023/03/29 04:51:16;;;;;;;2.75;0.90;;;;;;;15.99;37.76;101269.38;4937187;28;20038;-64
2023/03/29 04:53:42;;;;;;;3.53;1.17;;;;;;;15.99;38.41;101264.00;4953312;29;20023;-63
2023/03/29 04:56:07;;;;;;;0.90;0.90;;;;;;;16.02;38.50;101263.69;4954201;28;20043;-64
2023/03/29 04:58:33;;;;;;;2.33;1.42;;;;;;;16.00;38.57;101255.72;4954184;28;20127;-64
2023/03/29 05:00:58;;;;;;;1.83;0.77;;;;;;;16.00;39.68;101255.72;4968795;28;20042;-63
2023/03/29 05:03:24;;;;;;;2.60;1.08;;;;;;;16.01;38.15;101261.97;4952742;28;20032;-63
2023/03/29 05:05:50;;;;;;;3.58;0.80;;;;;;;15.98;38.12;101252.31;4953167;29;20031;-64
2023/03/29 05:08:15;;;;;;;2.13;0.80;;;;;;;16.01;38.98;101256.56;4968781;28;20036;-64
2023/03/29 05:10:42;;;;;;;10.45;1.15;;;;;;;16.03;39.23;101260.81;4953799;28;20039;-63
2023/03/29 05:13:08;;;;;;;6.28;1.00;;;;;;;16.03;38.32;101266.22;4936670;28;20084;-64
2023/03/29 05:15:34;;;;;;;2.40;1.00;;;;;;;16.02;38.18;101259.13;4968668;28;20055;-63
2023/03/29 05:18:01;;;;;;;5.88;1.10;;;;;;;16.04;38.09;101257.13;4936378;28;20080;-63
2023/03/29 05:20:28;;;;;;;1.45;0.80;;;;;;;16.05;38.76;101260.69;4952594;28;20020;-64
2023/03/29 05:22:54;;;;;;;3.50;1.30;;;;;;;16.03;38.57;101254.56;4952890;28;20043;-63
2023/03/29 05:25:19;;;;;;;1.95;1.02;;;;;;;16.09;39.82;101253.94;4952573;28;20036;-64
2023/03/29 05:27:45;;;;;;;2.75;1.00;;;;;;;16.11;38.88;101251.94;4968289;28;20105;-63
2023/03/29 05:30:12;;;;;;;1.50;0.80;;;;;;;16.13;39.11;101256.19;4936563;28;20057;-63
2023/03/29 05:32:37;;;;;;;2.40;1.30;;;;;;;16.15;38.16;101253.34;4952958;28;20094;-64
2023/03/29 05:35:05;;;;;;;4.20;1.30;;;;;;;16.14;39.11;101251.63;4953665;28;20134;-63
2023/03/29 05:37:32;;;;;;;4.25;0.60;;;;;;;16.13;38.27;101255.34;4936005;28;20047;-64
2023/03/29 05:39:57;;;;;;;2.28;1.00;;;;;;;16.12;38.72;101253.63;4952317;28;20035;-63
2023/03/29 05:42:23;;;;;;;1.98;1.15;;;;;;;16.13;39.00;101255.34;4952247;28;20054;-63
2023/03/29 05:44:49;;;;;;;4.20;1.48;;;;;;;16.10;39.80;101252.94;4952963;29;20134;-64
2023/03/29 05:47:14;;;;;;;4.60;1.60;;;;;;;16.15;38.86;101258.75;4954470;28;20056;-63
2023/03/29 05:49:39;;;;;;;2.10;1.10;;;;;;;16.17;39.76;101254.88;4956174;28;20046;-62
2023/03/29 05:52:05;;;;;;;3.33;1.17;;;;;;;16.20;38.90;101253.72;4953392;28;20096;-62
2023/03/29 05:54:31;;;;;;;3.38;1.42;;;;;;;16.22;39.23;101257.09;4952246;28;20042;-62
2023/03/29 05:56:56;;;;;;;3.63;1.13;;;;;;;16.22;38.63;101254.41;4936570;28;20112;-61
2023/03/29 05:59:23;;;;;;;3.63;1.45;;;;;;;16.26;39.32;101253.94;4953311;28;20053;-62
2023/03/29 06:01:48;;;;;;;8.80;1.38;;;;;;;16.29;39.26;101255.50;4968077;28;20035;-62
2023/03/29 06:04:14;;;;;;;1.30;1.13;;;;;;;16.31;39.36;101253.47;4952018;28;20387;-62
2023/03/29 06:06:40;;;;;;;4.93;1.30;;;;;;;16.37;39.51;101260.97;4920138;28;20165;-62
2023/03/29 06:09:06;;;;;;;5.03;1.40;;;;;;;16.43;39.94;101259.50;4951926;28;20027;-62
2023/03/29 06:11:33;;;;;;;9.35;1.77;;;;;;;16.49;38.97;101259.72;4936282;29;20521;-62
2023/03/29 06:13:59;;;;;;;4.03;1.30;;;;;;;16.54;39.43;101259.28;4951859;28;20036;-62
2023/03/29 06:16:25;;;;;;;8.10;1.65;;;;;;;16.56;38.86;101255.41;4953048;28;20031;-62
2023/03/29 06:18:50;;;;;;;8.07;2.50;;;;;;;16.61;39.10;101258.47;4951373;28;20050;-61
2023/03/29 06:21:16;;;;;;;5.75;2.40;;;;;;;16.67;39.33;101265.97;4936068;28;20046;-62
2023/03/29 06:23:41;;;;;;;6.97;1.90;;;;;;;16.73;39.61;101259.94;4920381;28;20042;-62
2023/03/29 06:26:07;;;;;;;3.65;2.13;;;;;;;16.78;39.20;101262.16;4952788;28;20085;-61
2023/03/29 06:28:32;;;;;;;3.15;1.33;;;;;;;16.83;38.81;101266.06;4951009;28;20445;-62
2023/03/29 06:31:01;;;;;;;3.78;1.40;;;;;;;16.87;39.42;101261.19;4966184;28;20130;-62
2023/03/29 06:33:29;;;;;;;2.35;1.35;;;;;;;16.94;39.61;101262.28;4951479;28;20039;-61
2023/03/29 06:35:54;;;;;;;4.72;1.52;;;;;;;17.00;39.75;101264.31;4952146;28;20406;-62
2023/03/29 06:38:20;;;;;;;3.17;1.25;;;;;;;17.08;39.72;101258.13;4935403;28;20039;-62
2023/03/29 06:40:46;;;;;;;4.00;1.77;;;;;;;17.15;39.26;101253.75;4951695;28;20035;-62
2023/03/29 06:43:12;;;;;;;1.30;1.00;;;;;;;17.19;39.69;101255.16;4952981;28;20044;-62
2023/03/29 06:45:39;;;;;;;2.40;1.10;;;;;;;17.21;39.61;101248.56;4951452;28;20035;-62
2023/03/29 06:48:06;;;;;;;5.10;1.50;;;;;;;17.24;38.59;101264.47;4935338;28;20024;-62
2023/03/29 06:50:32;;;;;;;4.50;1.50;;;;;;;17.22;40.29;101255.69;4951661;29;20027;-61
2023/03/29 06:52:57;;;;;;;1.30;1.00;;;;;;;17.24;39.78;101252.78;4951250;28;20038;-62
2023/03/29 06:55:23;;;;;;;3.80;1.55;;;;;;;17.26;39.94;101265.16;4935219;28;20038;-62
2023/03/29 06:57:48;;;;;;;3.90;1.10;;;;;;;17.27;39.26;101247.91;4951335;28;20027;-62
2023/03/29 07:00:18;;;;;;;3.30;1.40;;;;;;;17.31;39.79;101251.13;4967124;28;20421;-61
2023/03/29 07:02:48;;;;;;;7.68;1.30;;;;;;;17.34;40.12;101253.50;4951599;28;20054;-62
2023/03/29 07:05:14;;;;;;;4.50;1.23;;;;;;;17.37;38.97;101253.19;4951104;28;20039;-62
2023/03/29 07:07:55;;;;;;;3.10;1.00;;;;;;;17.43;39.44;101258.81;4952064;28;20037;-62
2023/03/29 07:10:27;;;;;;;7.82;1.40;;;;;;;17.47;39.05;101264.75;4951002;28;20058;-62
2023/03/29 07:12:53;;;;;;;7.10;1.48;;;;;;;17.51;39.77;101259.84;4948260;28;20035;-62
2023/03/29 07:15:20;;;;;;;4.20;1.45;;;;;;;17.60;39.09;101258.91;4935067;28;20046;-62
2023/03/29 07:17:46;;;;;;;2.30;1.10;;;;;;;17.66;39.80;101269.09;4951241;28;20027;-62
2023/03/29 07:20:13;;;;;;;1.60;1.27;;;;;;;17.71;39.99;101261.31;4919324;28;20043;-62
2023/03/29 07:22:43;;;;;;;5.07;1.40;;;;;;;17.74;39.36;101256.41;4950780;28;20035;-62
2023/03/29 07:25:09;;;;;;;6.65;1.20;;;;;;;17.79;39.70;101254.06;4950899;28;20028;-62
2023/03/29 07:27:36;;;;;;;5.43;1.55;;;;;;;17.82;38.58;101251.00;4934700;28;20031;-62
2023/03/29 07:30:05;;;;;;;4.93;2.00;;;;;;;17.89;40.33;101262.91;4950850;28;20495;-62
2023/03/29 07:32:30;;;;;;;2.92;1.33;;;;;;;17.91;39.14;101255.44;4951130;28;20538;-62
2023/03/29 07:34:56;;;;;;;5.65;1.38;;;;;;;17.98;38.93;101253.75;4950717;28;20111;-62
2023/03/29 07:37:23;;;;;;;3.17;1.08;;;;;;;18.04;38.80;101255.81;4951656;28;20058;-62
2023/03/29 07:39:49;;;;;;;3.83;1.42;;;;;;;18.14;39.59;101268.38;4934956;28;20049;-62
2023/03/29 07:42:15;;;;;;;3.88;1.70;;;;;;;18.18;39.45;101264.28;4951140;28;20023;-62
2023/03/29 07:44:40;;;;;;;3.58;1.63;;;;;;;18.26;39.65;101272.41;4938628;29;20042;-62
2023/03/29 07:47:05;;;;;;;6.60;1.42;;;;;;;18.33;39.24;101265.31;4954126;28;20122;-62
2023/03/29 07:49:31;;;;;;;3.53;1.15;;;;;;;18.40;39.31;101277.19;4922216;28;20157;-62
2023/03/29 07:51:56;;;;;;;2.08;1.02;;;;;;;18.43;40.09;101279.56;4969908;28;20031;-62
2023/03/29 07:54:22;;;;;;;3.22;1.50;;;;;;;18.41;39.21;101282.47;4955078;28;20043;-62
2023/03/29 07:56:48;;;;;;;4.88;1.23;;;;;;;18.45;39.49;101282.97;4938299;29;20031;-62
2023/03/29 07:59:14;;;;;;;4.90;1.52;;;;;;;18.47;39.35;101270.09;4937803;28;20498;-61
2023/03/29 08:01:42;;;;;;;1.25;1.10;;;;;;;18.51;39.76;101271.44;4937810;28;20134;-62
2023/03/29 08:04:08;;;;;;;6.38;1.17;;;;;;;18.56;39.95;101280.78;4938095;28;20077;-62
2023/03/29 08:06:34;;;;;;;5.22;1.60;;;;;;;18.64;39.62;101287.25;4953616;28;20518;-62
2023/03/29 08:08:59;;;;;;;6.07;1.70;;;;;;;18.68;39.37;101289.44;4969538;28;20062;-62
2023/03/29 08:11:24;;;;;;;5.80;1.52;;;;;;;18.70;39.17;101292.84;4938029;28;20031;-61
2023/03/29 08:13:50;;;;;;;5.57;1.30;;;;;;;18.72;39.41;101300.81;4953517;28;20118;-62
2023/03/29 08:16:16;;;;;;;4.45;1.85;;;;;;;18.72;39.43;101296.22;4953598;28;20039;-62
2023/03/29 08:18:41;;;;;;;1.38;1.23;;;;;;;18.72;39.30;101296.22;4954604;28;20454;-62
2023/03/29 08:21:07;;;;;;;5.47;1.52;;;;;;;18.77;39.08;101293.00;4953374;28;20498;-62
2023/03/29 08:23:32;;;;;;;3.53;1.58;;;;;;;18.80;39.56;101295.38;4955015;28;20114;-62
2023/03/29 08:25:58;;;;;;;3.70;1.30;;;;;;;18.85;39.62;101288.41;4954685;28;20402;-62
2023/03/29 08:28:23;;;;;;;3.45;1.20;;;;;;;18.90;39.42;101272.44;4953083;28;20035;-62
2023/03/29 08:30:49;;;;;;;2.45;1.38;;;;;;;18.96;39.38;101277.19;4954689;28;20042;-63
2023/03/29 08:33:14;;;;;;;4.35;1.48;;;;;;;19.00;39.50;101289.41;4954582;28;20038;-62
2023/03/29 08:35:40;;;;;;;1.95;1.13;;;;;;;19.01;39.56;101276.69;4922026;28;20043;-62
2023/03/29 08:38:05;;;;;;;3.42;1.00;;;;;;;19.04;39.43;101279.88;4953060;28;20051;-62
2023/03/29 08:40:31;;;;;;;2.55;1.00;;;;;;;19.05;39.75;101276.16;4953440;28;20066;-62
2023/03/29 08:42:56;;;;;;;5.35;1.70;;;;;;;19.08;39.27;101281.25;4937231;28;20081;-62
2023/03/29 08:45:34;;;;;;;5.00;1.35;;;;;;;19.07;39.74;101293.13;4954361;28;20036;-62
2023/03/29 08:48:20;;;;;;;7.35;1.45;;;;;;;19.05;39.89;101287.03;4952990;28;20031;-62
2023/03/29 08:50:51;;;;;;;3.38;1.13;;;;;;;19.05;39.45;101287.03;4954691;28;20489;-62
2023/03/29 08:53:23;;;;;;;3.22;1.70;;;;;;;19.06;39.47;101277.88;4937095;28;20517;-62
2023/03/29 08:55:49;;;;;;;1.90;1.42;;;;;;;19.04;39.57;101282.59;4952244;28;20040;-62
2023/03/29 08:58:18;;;;;;;8.93;1.30;;;;;;;19.04;39.33;101281.75;4952963;28;20054;-62
2023/03/29 09:00:47;;;;;;;3.28;1.83;;;;;;;18.97;39.45;101278.03;4953980;28;20039;-62
2023/03/29 09:03:21;;;;;;;3.22;1.80;;;;;;;18.90;39.93;101275.16;4936876;28;20039;-62
2023/03/29 09:05:47;;;;;;;7.68;1.35;;;;;;;18.86;39.49;101270.25;4953342;28;20039;-62
2023/03/29 09:08:18;;;;;;;9.40;1.80;;;;;;;18.88;39.95;101274.50;4952634;28;20503;-62
2023/03/29 09:11:21;;;;;;;3.72;1.48;;;;;;;18.89;40.03;101283.50;4952784;28;20036;-62
2023/03/29 09:14:11;;;;;;;4.68;1.95;;;;;;;18.89;39.19;101270.75;4952715;28;20055;-62
2023/03/29 09:16:42;;;;;;;4.53;1.65;;;;;;;18.89;40.34;101261.78;4952674;28;20040;-62
2023/03/29 09:19:26;;;;;;;5.32;1.80;;;;;;;18.94;39.66;101267.53;4952609;28;20073;-62
2023/03/29 09:21:58;;;;;;;2.30;1.30;;;;;;;18.96;39.36;101260.91;4953838;28;20047;-62
2023/03/29 09:24:48;;;;;;;3.85;1.35;;;;;;;19.03;39.62;101280.06;4953839;28;20027;-62
2023/03/29 09:27:15;;;;;;;5.60;1.35;;;;;;;19.13;39.66;101272.56;4952559;28;20027;-62
2023/03/29 09:29:56;;;;;;;3.33;2.17;;;;;;;19.24;39.85;101263.19;4953228;28;20555;-62
2023/03/29 09:32:36;;;;;;;2.05;1.50;;;;;;;19.31;39.63;101258.78;4952534;28;20043;-62
2023/03/29 09:35:17;;;;;;;3.08;1.60;;;;;;;19.45;39.70;101255.34;4952614;28;20061;-62
2023/03/29 09:37:43;;;;;;;3.72;1.60;;;;;;;19.51;39.61;101254.66;5019857;28;20079;-62
2023/03/29 09:40:18;;;;;;;3.38;1.52;;;;;;;19.63;39.41;101245.06;4952381;28;20430;-62
2023/03/29 09:42:44;;;;;;;2.72;1.55;;;;;;;19.75;39.15;101246.38;4936429;29;20394;-62
2023/03/29 09:45:10;;;;;;;3.88;1.48;;;;;;;19.89;39.11;101248.31;4952198;28;20027;-63
2023/03/29 09:47:38;;;;;;;3.88;1.27;;;;;;;20.03;39.11;101250.28;4968780;28;20122;-62
2023/03/29 09:50:09;;;;;;;4.03;1.30;;;;;;;20.15;39.21;101248.00;4952701;28;20081;-62
2023/03/29 09:52:35;;;;;;;8.63;1.73;;;;;;;20.18;38.87;101248.47;4951840;28;20514;-62
2023/03/29 09:55:01;;;;;;;5.75;1.83;;;;;;;20.28;39.27;101245.53;4953921;28;20039;-62
2023/03/29 09:57:27;;;;;;;1.85;1.55;;;;;;;20.31;38.81;101240.59;4936500;29;20408;-62
2023/03/29 09:59:53;;;;;;;5.72;2.08;;;;;;;20.35;38.98;101235.63;4936856;28;20027;-62
2023/03/29 10:02:20;;;;;;;3.70;1.98;;;;;;;20.65;38.03;101239.28;4952826;28;20398;-62
2023/03/29 10:04:54;;;;;;;4.35;1.55;;;;;;;21.04;38.31;101220.81;4954272;28;20568;-63
2023/03/29 10:07:22;;;;;;;2.60;1.40;;;;;;;21.29;38.20;101238.63;4969116;28;20456;-63
2023/03/29 10:09:50;;;;;;;1.50;1.33;;;;;;;21.43;37.98;101235.03;4936344;28;20032;-63
2023/03/29 10:12:16;;;;;;;3.92;1.35;;;;;;;21.47;37.77;101239.06;4952061;28;20055;-63
2023/03/29 10:14:51;;;;;;;5.15;2.40;;;;;;;21.55;38.36;101248.19;4953332;28;20051;-62
2023/03/29 10:17:23;;;;;;;5.82;1.85;;;;;;;21.56;37.82;101249.84;4951902;28;20032;-62
2023/03/29 10:19:49;;;;;;;4.50;1.55;;;;;;;21.59;37.88;101252.19;4967660;28;20495;-63
2023/03/29 10:22:21;;;;;;;2.42;1.42;;;;;;;21.53;38.05;101244.78;4951584;28;20051;-63
2023/03/29 10:24:52;;;;;;;3.17;1.80;;;;;;;21.48;38.10;101242.63;4951611;28;20081;-64
2023/03/29 10:27:27;;;;;;;3.22;1.45;;;;;;;21.45;38.60;101243.84;4951714;28;20113;-62
2023/03/29 10:29:54;;;;;;;4.32;1.42;;;;;;;21.45;38.60;101238.41;4951888;28;20028;-62
2023/03/29 10:32:36;;;;;;;2.40;1.40;;;;;;;21.50;38.25;101242.47;4951723;28;20406;-62
2023/03/29 10:35:09;;;;;;;4.15;1.23;;;;;;;21.52;37.90;101232.19;4951502;28;20035;-65
2023/03/29 10:37:40;;;;;;;4.22;1.67;;;;;;;21.58;38.25;101226.81;4952357;28;20173;-62
2023/03/29 10:40:06;;;;;;;4.93;1.33;;;;;;;21.69;38.23;101222.75;4951708;28;20108;-62
2023/03/29 10:42:31;;;;;;;2.35;0.98;;;;;;;21.94;37.21;101218.69;4951890;28;20054;-62
2023/03/29 10:44:58;;;;;;;3.97;1.50;;;;;;;22.01;38.21;101228.63;4951667;29;20180;-63
2023/03/29 10:47:24;;;;;;;4.45;1.15;;;;;;;22.01;37.79;101233.22;4951869;29;20047;-63
2023/03/29 10:49:55;;;;;;;3.60;1.20;;;;;;;21.98;37.70;101225.41;4951183;28;20035;-62
2023/03/29 10:52:21;;;;;;;4.15;1.48;;;;;;;21.89;37.62;101232.03;4951393;28;20421;-62
2023/03/29 10:54:48;;;;;;;2.10;1.40;;;;;;;21.86;38.04;101224.22;4935335;29;20037;-62
2023/03/29 10:57:21;;;;;;;2.45;1.02;;;;;;;21.80;37.67;101211.34;4935554;28;20405;-63
2023/03/29 10:59:59;;;;;;;4.10;1.50;;;;;;;21.86;37.77;101219.59;4952715;28;20106;-62
2023/03/29 11:02:48;;;;;;;4.50;1.90;;;;;;;21.95;38.46;101214.91;4967174;28;20043;-62
2023/03/29 11:05:23;;;;;;;3.45;1.40;;;;;;;22.07;37.73;101202.44;4964329;28;20051;-62
2023/03/29 11:08:04;;;;;;;3.05;1.52;;;;;;;22.35;36.86;101197.03;4951195;28;20036;-62
2023/03/29 11:11:05;;;;;;;5.05;1.45;;;;;;;22.51;37.31;101194.84;4952504;28;20042;-62
2023/03/29 11:13:39;;;;;;;4.22;1.35;;;;;;;22.92;37.26;101183.22;4952077;28;20031;-62
2023/03/29 11:16:24;;;;;;;7.75;2.28;;;;;;;23.66;36.49;101179.59;4952272;28;20027;-62
2023/03/29 11:19:03;;;;;;;6.57;1.33;;;;;;;24.16;35.71;101183.72;4951921;28;20110;-63
2023/03/29 11:21:50;;;;;;;6.70;1.65;;;;;;;24.97;34.87;101180.72;4936261;28;20114;-63
2023/03/29 11:24:45;;;;;;;6.32;1.50;;;;;;;25.29;35.07;101174.31;4952681;28;20028;-63
2023/03/29 11:27:16;;;;;;;5.63;1.50;;;;;;;25.56;34.66;101169.56;4951348;28;20058;-65
2023/03/29 11:29:51;;;;;;;1.80;1.30;;;;;;;25.64;35.02;101167.41;4953064;28;20112;-63
2023/03/29 11:33:00;;;;;;;3.90;1.50;;;;;;;25.70;35.24;101174.78;4951332;28;20036;-63
2023/03/29 11:35:44;;;;;;;3.33;1.65;;;;;;;25.92;34.91;101176.13;4935323;28;20097;-65